sensor_id;sensor_type;location;lat;lon;timestamp;P1;durP1;ratioP1;P2;durP2;ratioP2
62796;SDS011;48839;48.546;-4.178;2023-03-29T00:00:18;7.40;;;3.42;;
62796;SDS011;48839;48.546;-4.178;2023-03-29T00:02:45;7.45;;;2.85;;
62796;SDS011;48839;48.546;-4.178;2023-03-29T00:05:18;5.07;;;3.45;;
62796;SDS011;48839;48.546;-4.178;2023-03-29T00:07:47;4.53;;;2.22;;
62796;SDS011;48839;48.546;-4.178;2023-03-29T00:10:18;3.55;;;2.65;;
62796;SDS011;48839;48.546;-4.178;2023-03-29T00:12:44;5.22;;;1.75;;
62796;SDS011;48839;48.546;-4.178;2023-03-29T00:15:11;3.55;;;1.90;;
62796;SDS011;48839;48.546;-4.178;2023-03-29T00:17:37;3.53;;;1.67;;
62796;SDS011;48839;48.546;-4.178;2023-03-29T00:20:03;4.75;;;1.38;;
62796;SDS011;48839;48.546;-4.178;2023-03-29T00:22:35;3.80;;;1.63;;
62796;SDS011;48839;48.546;-4.178;2023-03-29T00:25:01;2.78;;;1.75;;
62796;SDS011;48839;48.546;-4.178;2023-03-29T00:27:27;5.18;;;2.30;;
62796;SDS011;48839;48.546;-4.178;2023-03-29T00:29:53;3.55;;;2.08;;
62796;SDS011;48839;48.546;-4.178;2023-03-29T00:32:20;6.47;;;2.40;;
62796;SDS011;48839;48.546;-4.178;2023-03-29T00:34:46;4.65;;;2.55;;
62796;SDS011;48839;48.546;-4.178;2023-03-29T00:37:15;5.15;;;2.65;;
62796;SDS011;48839;48.546;-4.178;2023-03-29T00:39:42;4.80;;;3.20;;
62796;SDS011;48839;48.546;-4.178;2023-03-29T00:42:11;3.83;;;2.25;;
62796;SDS011;48839;48.546;-4.178;2023-03-29T00:47:20;3.78;;;1.80;;
62796;SDS011;48839;48.546;-4.178;2023-03-29T00:49:47;6.18;;;2.90;;
62796;SDS011;48839;48.546;-4.178;2023-03-29T00:52:14;2.15;;;1.83;;
62796;SDS011;48839;48.546;-4.178;2023-03-29T00:54:42;5.45;;;2.22;;
62796;SDS011;48839;48.546;-4.178;2023-03-29T00:57:09;6.30;;;2.03;;
62796;SDS011;48839;48.546;-4.178;2023-03-29T00:59:36;8.27;;;1.95;;
62796;SDS011;48839;48.546;-4.178;2023-03-29T01:02:03;4.63;;;1.77;;
62796;SDS011;48839;48.546;-4.178;2023-03-29T01:04:35;3.30;;;1.83;;
62796;SDS011;48839;48.546;-4.178;2023-03-29T01:07:09;8.57;;;2.42;;
62796;SDS011;48839;48.546;-4.178;2023-03-29T01:09:37;2.35;;;1.35;;
62796;SDS011;48839;48.546;-4.178;2023-03-29T01:12:07;4.18;;;2.35;;
62796;SDS011;48839;48.546;-4.178;2023-03-29T01:14:37;2.90;;;1.67;;
62796;SDS011;48839;48.546;-4.178;2023-03-29T01:17:05;4.90;;;2.05;;
62796;SDS011;48839;48.546;-4.178;2023-03-29T01:19:33;6.30;;;2.20;;
62796;SDS011;48839;48.546;-4.178;2023-03-29T01:22:23;5.53;;;1.83;;
62796;SDS011;48839;48.546;-4.178;2023-03-29T01:24:55;4.95;;;2.17;;
62796;SDS011;48839;48.546;-4.178;2023-03-29T01:30:11;3.67;;;2.05;;
62796;SDS011;48839;48.546;-4.178;2023-03-29T01:32:41;4.30;;;2.60;;
62796;SDS011;48839;48.546;-4.178;2023-03-29T01:37:39;5.85;;;2.63;;
62796;SDS011;48839;48.546;-4.178;2023-03-29T01:40:05;4.85;;;2.67;;
62796;SDS011;48839;48.546;-4.178;2023-03-29T01:47:52;2.88;;;1.90;;
62796;SDS011;48839;48.546;-4.178;2023-03-29T01:50:33;2.90;;;1.95;;
62796;SDS011;48839;48.546;-4.178;2023-03-29T01:55:30;8.23;;;2.25;;
62796;SDS011;48839;48.546;-4.178;2023-03-29T01:57:57;7.18;;;2.50;;
62796;SDS011;48839;48.546;-4.178;2023-03-29T02:00:25;5.88;;;2.00;;
62796;SDS011;48839;48.546;-4.178;2023-03-29T02:02:52;6.78;;;1.95;;
62796;SDS011;48839;48.546;-4.178;2023-03-29T02:05:19;6.97;;;2.70;;
62796;SDS011;48839;48.546;-4.178;2023-03-29T02:07:47;3.45;;;2.00;;
62796;SDS011;48839;48.546;-4.178;2023-03-29T02:10:13;4.70;;;1.90;;
62796;SDS011;48839;48.546;-4.178;2023-03-29T02:12:40;2.30;;;2.10;;
62796;SDS011;48839;48.546;-4.178;2023-03-29T02:15:11;3.92;;;1.90;;
62796;SDS011;48839;48.546;-4.178;2023-03-29T02:17:37;4.35;;;1.85;;
62796;SDS011;48839;48.546;-4.178;2023-03-29T02:20:15;7.82;;;2.35;;
62796;SDS011;48839;48.546;-4.178;2023-03-29T02:23:44;4.82;;;2.35;;
62796;SDS011;48839;48.546;-4.178;2023-03-29T02:25:40;2.97;;;1.80;;
62796;SDS011;48839;48.546;-4.178;2023-03-29T02:28:06;4.10;;;2.00;;
62796;SDS011;48839;48.546;-4.178;2023-03-29T02:31:19;4.18;;;1.80;;
62796;SDS011;48839;48.546;-4.178;2023-03-29T02:33:26;2.97;;;1.85;;
62796;SDS011;48839;48.546;-4.178;2023-03-29T02:35:59;3.80;;;1.60;;
62796;SDS011;48839;48.546;-4.178;2023-03-29T02:38:27;4.85;;;1.80;;
62796;SDS011;48839;48.546;-4.178;2023-03-29T02:40:54;4.50;;;1.95;;
62796;SDS011;48839;48.546;-4.178;2023-03-29T02:43:21;3.08;;;1.50;;
62796;SDS011;48839;48.546;-4.178;2023-03-29T02:45:49;3.58;;;1.38;;
62796;SDS011;48839;48.546;-4.178;2023-03-29T02:48:16;4.68;;;1.77;;
62796;SDS011;48839;48.546;-4.178;2023-03-29T02:50:43;4.78;;;1.77;;
62796;SDS011;48839;48.546;-4.178;2023-03-29T02:53:12;5.88;;;1.60;;
62796;SDS011;48839;48.546;-4.178;2023-03-29T02:55:39;4.03;;;1.65;;
62796;SDS011;48839;48.546;-4.178;2023-03-29T02:58:05;3.75;;;1.20;;
62796;SDS011;48839;48.546;-4.178;2023-03-29T03:00:35;3.45;;;1.98;;
62796;SDS011;48839;48.546;-4.178;2023-03-29T03:03:03;8.45;;;3.55;;
62796;SDS011;48839;48.546;-4.178;2023-03-29T03:05:29;29.25;;;10.05;;
62796;SDS011;48839;48.546;-4.178;2023-03-29T03:07:55;37.22;;;14.45;;
62796;SDS011;48839;48.546;-4.178;2023-03-29T03:10:22;50.58;;;17.75;;
62796;SDS011;48839;48.546;-4.178;2023-03-29T03:12:48;15.45;;;6.78;;
62796;SDS011;48839;48.546;-4.178;2023-03-29T03:15:15;51.85;;;18.88;;
62796;SDS011;48839;48.546;-4.178;2023-03-29T03:17:41;17.35;;;9.00;;
62796;SDS011;48839;48.546;-4.178;2023-03-29T03:20:10;4.22;;;3.47;;
62796;SDS011;48839;48.546;-4.178;2023-03-29T03:22:36;6.07;;;2.78;;
62796;SDS011;48839;48.546;-4.178;2023-03-29T03:25:03;1.98;;;1.88;;
62796;SDS011;48839;48.546;-4.178;2023-03-29T03:27:29;3.70;;;1.77;;
62796;SDS011;48839;48.546;-4.178;2023-03-29T03:29:57;2.95;;;1.40;;
62796;SDS011;48839;48.546;-4.178;2023-03-29T03:32:23;2.90;;;1.33;;
62796;SDS011;48839;48.546;-4.178;2023-03-29T03:34:49;1.63;;;1.35;;
62796;SDS011;48839;48.546;-4.178;2023-03-29T03:37:15;2.55;;;1.85;;
62796;SDS011;48839;48.546;-4.178;2023-03-29T03:39:42;6.82;;;1.63;;
62796;SDS011;48839;48.546;-4.178;2023-03-29T03:42:08;2.78;;;2.08;;
62796;SDS011;48839;48.546;-4.178;2023-03-29T03:44:34;1.20;;;1.20;;
62796;SDS011;48839;48.546;-4.178;2023-03-29T03:47:00;4.50;;;1.90;;
62796;SDS011;48839;48.546;-4.178;2023-03-29T03:49:26;3.88;;;1.73;;
62796;SDS011;48839;48.546;-4.178;2023-03-29T03:51:53;4.82;;;1.85;;
62796;SDS011;48839;48.546;-4.178;2023-03-29T03:54:19;3.08;;;1.98;;
62796;SDS011;48839;48.546;-4.178;2023-03-29T03:56:45;2.60;;;1.40;;
62796;SDS011;48839;48.546;-4.178;2023-03-29T03:59:12;1.92;;;1.67;;
62796;SDS011;48839;48.546;-4.178;2023-03-29T04:01:38;2.35;;;2.05;;
62796;SDS011;48839;48.546;-4.178;2023-03-29T04:04:07;4.35;;;2.40;;
62796;SDS011;48839;48.546;-4.178;2023-03-29T04:06:34;5.20;;;2.28;;
62796;SDS011;48839;48.546;-4.178;2023-03-29T04:09:00;9.73;;;2.78;;
62796;SDS011;48839;48.546;-4.178;2023-03-29T04:11:26;3.75;;;2.17;;
62796;SDS011;48839;48.546;-4.178;2023-03-29T04:13:52;2.78;;;1.67;;
62796;SDS011;48839;48.546;-4.178;2023-03-29T04:16:18;5.38;;;1.48;;
62796;SDS011;48839;48.546;-4.178;2023-03-29T04:18:45;2.30;;;1.25;;
62796;SDS011;48839;48.546;-4.178;2023-03-29T04:21:11;6.38;;;1.70;;
62796;SDS011;48839;48.546;-4.178;2023-03-29T04:23:37;2.42;;;1.83;;
62796;SDS011;48839;48.546;-4.178;2023-03-29T04:26:03;1.75;;;1.58;;
62796;SDS011;48839;48.546;-4.178;2023-03-29T04:28:30;3.78;;;1.50;;
62796;SDS011;48839;48.546;-4.178;2023-03-29T04:30:56;3.03;;;1.92;;
62796;SDS011;48839;48.546;-4.178;2023-03-29T04:33:22;3.80;;;1.58;;
62796;SDS011;48839;48.546;-4.178;2023-03-29T04:35:48;3.50;;;1.95;;
62796;SDS011;48839;48.546;-4.178;2023-03-29T04:38:14;4.75;;;1.92;;
62796;SDS011;48839;48.546;-4.178;2023-03-29T04:40:40;3.92;;;2.35;;
62796;SDS011;48839;48.546;-4.178;2023-03-29T04:43:07;5.25;;;2.05;;
62796;SDS011;48839;48.546;-4.178;2023-03-29T04:45:33;6.22;;;2.10;;
62796;SDS011;48839;48.546;-4.178;2023-03-29T04:48:00;10.80;;;1.92;;
62796;SDS011;48839;48.546;-4.178;2023-03-29T04:50:27;6.90;;;2.22;;
62796;SDS011;48839;48.546;-4.178;2023-03-29T04:52:53;11.80;;;3.22;;
62796;SDS011;48839;48.546;-4.178;2023-03-29T04:55:19;4.30;;;2.20;;
62796;SDS011;48839;48.546;-4.178;2023-03-29T04:57:45;7.20;;;2.60;;
62796;SDS011;48839;48.546;-4.178;2023-03-29T05:00:11;7.35;;;2.97;;
62796;SDS011;48839;48.546;-4.178;2023-03-29T05:02:41;11.45;;;2.63;;
62796;SDS011;48839;48.546;-4.178;2023-03-29T05:05:08;8.32;;;2.17;;
62796;SDS011;48839;48.546;-4.178;2023-03-29T05:07:34;5.22;;;2.55;;
62796;SDS011;48839;48.546;-4.178;2023-03-29T05:10:01;14.23;;;2.90;;
62796;SDS011;48839;48.546;-4.178;2023-03-29T05:12:27;13.05;;;2.95;;
62796;SDS011;48839;48.546;-4.178;2023-03-29T05:14:53;6.85;;;2.28;;
62796;SDS011;48839;48.546;-4.178;2023-03-29T05:17:19;10.50;;;2.70;;
62796;SDS011;48839;48.546;-4.178;2023-03-29T05:19:45;12.75;;;2.50;;
62796;SDS011;48839;48.546;-4.178;2023-03-29T05:22:12;8.63;;;2.70;;
62796;SDS011;48839;48.546;-4.178;2023-03-29T05:24:39;13.82;;;2.50;;
62796;SDS011;48839;48.546;-4.178;2023-03-29T05:27:06;12.70;;;2.58;;
62796;SDS011;48839;48.546;-4.178;2023-03-29T05:29:32;4.53;;;2.40;;
62796;SDS011;48839;48.546;-4.178;2023-03-29T05:31:58;17.40;;;4.00;;
62796;SDS011;48839;48.546;-4.178;2023-03-29T05:34:24;6.68;;;2.33;;
62796;SDS011;48839;48.546;-4.178;2023-03-29T05:36:50;7.80;;;3.22;;
62796;SDS011;48839;48.546;-4.178;2023-03-29T05:39:17;15.35;;;3.15;;
62796;SDS011;48839;48.546;-4.178;2023-03-29T05:41:43;6.70;;;2.22;;
62796;SDS011;48839;48.546;-4.178;2023-03-29T05:44:09;11.80;;;2.70;;
62796;SDS011;48839;48.546;-4.178;2023-03-29T05:46:35;12.00;;;2.75;;
62796;SDS011;48839;48.546;-4.178;2023-03-29T05:49:01;7.43;;;2.30;;
62796;SDS011;48839;48.546;-4.178;2023-03-29T05:51:28;7.60;;;2.08;;
62796;SDS011;48839;48.546;-4.178;2023-03-29T05:53:54;5.22;;;1.83;;
62796;SDS011;48839;48.546;-4.178;2023-03-29T05:56:20;6.03;;;2.08;;
62796;SDS011;48839;48.546;-4.178;2023-03-29T05:58:46;6.30;;;2.20;;
62796;SDS011;48839;48.546;-4.178;2023-03-29T06:01:13;9.88;;;2.15;;
62796;SDS011;48839;48.546;-4.178;2023-03-29T06:03:42;4.82;;;2.10;;
62796;SDS011;48839;48.546;-4.178;2023-03-29T06:06:08;8.27;;;2.05;;
62796;SDS011;48839;48.546;-4.178;2023-03-29T06:08:34;9.60;;;2.10;;
62796;SDS011;48839;48.546;-4.178;2023-03-29T06:11:04;12.02;;;2.83;;
62796;SDS011;48839;48.546;-4.178;2023-03-29T06:13:30;5.22;;;2.05;;
62796;SDS011;48839;48.546;-4.178;2023-03-29T06:15:57;9.43;;;2.00;;
62796;SDS011;48839;48.546;-4.178;2023-03-29T06:18:23;12.95;;;2.55;;
62796;SDS011;48839;48.546;-4.178;2023-03-29T06:20:49;7.97;;;2.05;;
62796;SDS011;48839;48.546;-4.178;2023-03-29T06:23:16;8.45;;;2.40;;
62796;SDS011;48839;48.546;-4.178;2023-03-29T06:25:43;3.88;;;1.65;;
62796;SDS011;48839;48.546;-4.178;2023-03-29T06:28:09;7.90;;;2.38;;
62796;SDS011;48839;48.546;-4.178;2023-03-29T06:30:36;7.20;;;1.95;;
62796;SDS011;48839;48.546;-4.178;2023-03-29T06:33:02;3.33;;;1.33;;
62796;SDS011;48839;48.546;-4.178;2023-03-29T06:35:31;9.98;;;2.35;;
62796;SDS011;48839;48.546;-4.178;2023-03-29T06:37:58;7.90;;;2.17;;
62796;SDS011;48839;48.546;-4.178;2023-03-29T06:40:24;4.28;;;1.65;;
62796;SDS011;48839;48.546;-4.178;2023-03-29T06:42:51;4.43;;;2.50;;
62796;SDS011;48839;48.546;-4.178;2023-03-29T06:45:22;10.48;;;2.00;;
62796;SDS011;48839;48.546;-4.178;2023-03-29T06:47:48;6.32;;;2.55;;
62796;SDS011;48839;48.546;-4.178;2023-03-29T06:50:14;9.48;;;1.85;;
62796;SDS011;48839;48.546;-4.178;2023-03-29T06:52:41;7.35;;;3.55;;
62796;SDS011;48839;48.546;-4.178;2023-03-29T06:55:07;10.02;;;2.80;;
62796;SDS011;48839;48.546;-4.178;2023-03-29T06:57:34;5.88;;;1.52;;
62796;SDS011;48839;48.546;-4.178;2023-03-29T07:00:01;9.27;;;2.40;;
62796;SDS011;48839;48.546;-4.178;2023-03-29T07:02:33;9.55;;;2.83;;
62796;SDS011;48839;48.546;-4.178;2023-03-29T07:04:59;10.02;;;2.00;;
62796;SDS011;48839;48.546;-4.178;2023-03-29T07:07:26;9.30;;;1.83;;
62796;SDS011;48839;48.546;-4.178;2023-03-29T07:10:08;12.15;;;1.60;;
62796;SDS011;48839;48.546;-4.178;2023-03-29T07:12:34;6.60;;;1.58;;
62796;SDS011;48839;48.546;-4.178;2023-03-29T07:15:00;11.57;;;1.85;;
62796;SDS011;48839;48.546;-4.178;2023-03-29T07:17:26;8.68;;;2.30;;
62796;SDS011;48839;48.546;-4.178;2023-03-29T07:19:52;7.22;;;1.65;;
62796;SDS011;48839;48.546;-4.178;2023-03-29T07:22:18;8.75;;;2.25;;
62796;SDS011;48839;48.546;-4.178;2023-03-29T07:24:44;8.10;;;1.77;;
62796;SDS011;48839;48.546;-4.178;2023-03-29T07:27:10;5.97;;;1.42;;
62796;SDS011;48839;48.546;-4.178;2023-03-29T07:29:37;10.30;;;1.88;;
62796;SDS011;48839;48.546;-4.178;2023-03-29T07:32:03;9.57;;;1.90;;
62796;SDS011;48839;48.546;-4.178;2023-03-29T07:34:29;16.05;;;7.53;;
62796;SDS011;48839;48.546;-4.178;2023-03-29T07:36:56;12.13;;;3.67;;
62796;SDS011;48839;48.546;-4.178;2023-03-29T07:39:23;7.95;;;2.58;;
62796;SDS011;48839;48.546;-4.178;2023-03-29T07:41:50;8.68;;;2.67;;
62796;SDS011;48839;48.546;-4.178;2023-03-29T07:44:16;13.73;;;4.22;;
62796;SDS011;48839;48.546;-4.178;2023-03-29T07:46:43;26.00;;;6.68;;
62796;SDS011;48839;48.546;-4.178;2023-03-29T07:49:09;22.08;;;6.60;;
62796;SDS011;48839;48.546;-4.178;2023-03-29T07:51:35;12.02;;;4.78;;
62796;SDS011;48839;48.546;-4.178;2023-03-29T07:54:02;11.90;;;3.05;;
62796;SDS011;48839;48.546;-4.178;2023-03-29T07:56:29;6.75;;;2.83;;
62796;SDS011;48839;48.546;-4.178;2023-03-29T07:58:55;5.68;;;2.15;;
62796;SDS011;48839;48.546;-4.178;2023-03-29T08:01:21;10.25;;;2.60;;
62796;SDS011;48839;48.546;-4.178;2023-03-29T08:03:47;9.07;;;2.40;;
62796;SDS011;48839;48.546;-4.178;2023-03-29T08:06:13;11.23;;;2.15;;
62796;SDS011;48839;48.546;-4.178;2023-03-29T08:08:40;5.93;;;2.50;;
62796;SDS011;48839;48.546;-4.178;2023-03-29T08:11:06;7.60;;;2.60;;
62796;SDS011;48839;48.546;-4.178;2023-03-29T08:13:34;14.27;;;3.45;;
62796;SDS011;48839;48.546;-4.178;2023-03-29T08:16:00;15.63;;;3.20;;
62796;SDS011;48839;48.546;-4.178;2023-03-29T08:18:26;13.80;;;2.58;;
62796;SDS011;48839;48.546;-4.178;2023-03-29T08:20:52;7.82;;;2.25;;
62796;SDS011;48839;48.546;-4.178;2023-03-29T08:23:18;5.63;;;2.72;;
62796;SDS011;48839;48.546;-4.178;2023-03-29T08:25:45;7.70;;;2.13;;
62796;SDS011;48839;48.546;-4.178;2023-03-29T08:28:11;10.40;;;2.47;;
62796;SDS011;48839;48.546;-4.178;2023-03-29T08:30:37;11.20;;;2.70;;
62796;SDS011;48839;48.546;-4.178;2023-03-29T08:33:03;11.52;;;2.67;;
62796;SDS011;48839;48.546;-4.178;2023-03-29T08:35:29;8.25;;;2.17;;
62796;SDS011;48839;48.546;-4.178;2023-03-29T08:37:56;13.90;;;2.25;;
62796;SDS011;48839;48.546;-4.178;2023-03-29T08:40:23;10.75;;;2.90;;
62796;SDS011;48839;48.546;-4.178;2023-03-29T08:50:19;8.45;;;2.03;;
62796;SDS011;48839;48.546;-4.178;2023-03-29T08:52:50;8.68;;;2.15;;
62796;SDS011;48839;48.546;-4.178;2023-03-29T08:55:40;4.55;;;1.83;;
62796;SDS011;48839;48.546;-4.178;2023-03-29T08:58:05;6.00;;;1.73;;
62796;SDS011;48839;48.546;-4.178;2023-03-29T09:02:58;8.65;;;1.70;;
62796;SDS011;48839;48.546;-4.178;2023-03-29T09:05:28;6.50;;;1.70;;
62796;SDS011;48839;48.546;-4.178;2023-03-29T09:07:55;6.30;;;1.90;;
62796;SDS011;48839;48.546;-4.178;2023-03-29T09:10:24;9.15;;;2.28;;
62796;SDS011;48839;48.546;-4.178;2023-03-29T09:12:57;8.23;;;2.13;;
62796;SDS011;48839;48.546;-4.178;2023-03-29T09:15:29;8.07;;;1.73;;
62796;SDS011;48839;48.546;-4.178;2023-03-29T09:18:10;6.65;;;1.88;;
62796;SDS011;48839;48.546;-4.178;2023-03-29T09:28:40;6.85;;;1.65;;
62796;SDS011;48839;48.546;-4.178;2023-03-29T09:31:13;5.90;;;1.90;;
62796;SDS011;48839;48.546;-4.178;2023-03-29T09:33:42;7.60;;;1.90;;
62796;SDS011;48839;48.546;-4.178;2023-03-29T09:39:08;7.60;;;1.73;;
62796;SDS011;48839;48.546;-4.178;2023-03-29T09:44:12;6.45;;;2.38;;
62796;SDS011;48839;48.546;-4.178;2023-03-29T09:46:41;6.43;;;1.85;;
62796;SDS011;48839;48.546;-4.178;2023-03-29T09:49:11;7.30;;;1.83;;
62796;SDS011;48839;48.546;-4.178;2023-03-29T09:51:39;7.00;;;1.77;;
62796;SDS011;48839;48.546;-4.178;2023-03-29T09:54:08;7.00;;;2.05;;
62796;SDS011;48839;48.546;-4.178;2023-03-29T09:56:36;6.88;;;1.73;;
62796;SDS011;48839;48.546;-4.178;2023-03-29T09:59:03;4.25;;;1.40;;
62796;SDS011;48839;48.546;-4.178;2023-03-29T10:01:35;5.05;;;1.83;;
62796;SDS011;48839;48.546;-4.178;2023-03-29T10:04:04;7.43;;;1.77;;
62796;SDS011;48839;48.546;-4.178;2023-03-29T10:06:30;9.20;;;2.10;;
62796;SDS011;48839;48.546;-4.178;2023-03-29T10:08:58;5.60;;;2.17;;
62796;SDS011;48839;48.546;-4.178;2023-03-29T10:11:31;6.68;;;1.67;;
62796;SDS011;48839;48.546;-4.178;2023-03-29T10:13:59;7.32;;;1.75;;
62796;SDS011;48839;48.546;-4.178;2023-03-29T10:16:32;6.85;;;2.20;;
62796;SDS011;48839;48.546;-4.178;2023-03-29T10:19:05;7.57;;;2.42;;
62796;SDS011;48839;48.546;-4.178;2023-03-29T10:21:31;8.13;;;1.70;;
62796;SDS011;48839;48.546;-4.178;2023-03-29T10:23:57;9.15;;;3.13;;
62796;SDS011;48839;48.546;-4.178;2023-03-29T10:26:27;6.82;;;2.03;;
62796;SDS011;48839;48.546;-4.178;2023-03-29T10:28:54;7.82;;;2.67;;
62796;SDS011;48839;48.546;-4.178;2023-03-29T10:31:21;8.30;;;3.22;;
62796;SDS011;48839;48.546;-4.178;2023-03-29T10:33:54;7.18;;;2.30;;
62796;SDS011;48839;48.546;-4.178;2023-03-29T10:36:21;7.95;;;2.60;;
62796;SDS011;48839;48.546;-4.178;2023-03-29T10:38:49;11.57;;;2.70;;
62796;SDS011;48839;48.546;-4.178;2023-03-29T10:41:15;5.40;;;2.58;;
62796;SDS011;48839;48.546;-4.178;2023-03-29T10:43:46;7.88;;;2.75;;
62796;SDS011;48839;48.546;-4.178;2023-03-29T10:46:22;5.93;;;2.28;;
62796;SDS011;48839;48.546;-4.178;2023-03-29T10:51:15;9.73;;;2.38;;
62796;SDS011;48839;48.546;-4.178;2023-03-29T10:53:42;11.02;;;2.78;;
62796;SDS011;48839;48.546;-4.178;2023-03-29T10:56:16;9.95;;;2.83;;
62796;SDS011;48839;48.546;-4.178;2023-03-29T11:06:48;8.32;;;3.03;;
62796;SDS011;48839;48.546;-4.178;2023-03-29T11:09:38;9.05;;;3.28;;
62796;SDS011;48839;48.546;-4.178;2023-03-29T11:12:09;6.70;;;3.83;;
62796;SDS011;48839;48.546;-4.178;2023-03-29T11:22:15;8.23;;;2.78;;
62796;SDS011;48839;48.546;-4.178;2023-03-29T11:27:22;8.30;;;3.00;;
62796;SDS011;48839;48.546;-4.178;2023-03-29T11:32:28;7.85;;;3.08;;
62796;SDS011;48839;48.546;-4.178;2023-03-29T11:35:17;8.00;;;3.30;;
62796;SDS011;48839;48.546;-4.178;2023-03-29T11:38:01;7.85;;;2.53;;
62796;SDS011;48839;48.546;-4.178;2023-03-29T11:43:38;11.90;;;3.28;;
62796;SDS011;48839;48.546;-4.178;2023-03-29T11:48:36;9.75;;;3.90;;
62796;SDS011;48839;48.546;-4.178;2023-03-29T11:51:12;11.65;;;3.35;;
62796;SDS011;48839;48.546;-4.178;2023-03-29T11:56:18;15.95;;;3.88;;
62796;SDS011;48839;48.546;-4.178;2023-03-29T11:58:49;8.18;;;3.00;;
62796;SDS011;48839;48.546;-4.178;2023-03-29T12:01:38;12.40;;;3.97;;
62796;SDS011;48839;48.546;-4.178;2023-03-29T12:04:09;11.50;;;2.90;;
62796;SDS011;48839;48.546;-4.178;2023-03-29T12:11:39;10.35;;;4.72;;
62796;SDS011;48839;48.546;-4.178;2023-03-29T12:14:22;12.60;;;4.60;;
62796;SDS011;48839;48.546;-4.178;2023-03-29T12:16:58;11.82;;;4.35;;
62796;SDS011;48839;48.546;-4.178;2023-03-29T12:19:35;10.98;;;4.50;;
62796;SDS011;48839;48.546;-4.178;2023-03-29T12:22:02;10.73;;;3.63;;
62796;SDS011;48839;48.546;-4.178;2023-03-29T12:24:31;11.27;;;4.22;;
62796;SDS011;48839;48.546;-4.178;2023-03-29T12:29:42;18.48;;;5.13;;
62796;SDS011;48839;48.546;-4.178;2023-03-29T12:34:54;13.02;;;4.53;;
62796;SDS011;48839;48.546;-4.178;2023-03-29T12:37:31;17.50;;;4.43;;
62796;SDS011;48839;48.546;-4.178;2023-03-29T12:40:13;15.20;;;5.13;;
62796;SDS011;48839;48.546;-4.178;2023-03-29T12:43:14;12.27;;;4.47;;
62796;SDS011;48839;48.546;-4.178;2023-03-29T12:45:41;14.40;;;4.15;;
62796;SDS011;48839;48.546;-4.178;2023-03-29T12:48:16;14.38;;;4.70;;
62796;SDS011;48839;48.546;-4.178;2023-03-29T12:50:45;16.23;;;5.32;;
62796;SDS011;48839;48.546;-4.178;2023-03-29T12:53:16;15.60;;;4.72;;
62796;SDS011;48839;48.546;-4.178;2023-03-29T12:58:21;18.52;;;5.13;;
62796;SDS011;48839;48.546;-4.178;2023-03-29T13:00:54;19.15;;;4.63;;
62796;SDS011;48839;48.546;-4.178;2023-03-29T13:03:27;19.02;;;4.82;;
62796;SDS011;48839;48.546;-4.178;2023-03-29T13:06:03;17.45;;;4.15;;
62796;SDS011;48839;48.546;-4.178;2023-03-29T13:08:37;17.50;;;5.53;;
62796;SDS011;48839;48.546;-4.178;2023-03-29T13:11:04;14.40;;;4.43;;
62796;SDS011;48839;48.546;-4.178;2023-03-29T13:13:33;19.23;;;5.18;;
62796;SDS011;48839;48.546;-4.178;2023-03-29T13:16:07;17.48;;;3.67;;
62796;SDS011;48839;48.546;-4.178;2023-03-29T13:18:53;20.73;;;5.90;;
62796;SDS011;48839;48.546;-4.178;2023-03-29T13:21:37;16.33;;;4.50;;
62796;SDS011;48839;48.546;-4.178;2023-03-29T13:36:56;16.50;;;4.15;;
62796;SDS011;48839;48.546;-4.178;2023-03-29T13:39:28;13.68;;;3.28;;
62796;SDS011;48839;48.546;-4.178;2023-03-29T13:44:42;13.30;;;5.28;;
62796;SDS011;48839;48.546;-4.178;2023-03-29T13:49:49;14.77;;;3.58;;
62796;SDS011;48839;48.546;-4.178;2023-03-29T13:52:21;13.02;;;3.42;;
62796;SDS011;48839;48.546;-4.178;2023-03-29T13:54:50;15.35;;;4.85;;
62796;SDS011;48839;48.546;-4.178;2023-03-29T13:57:19;16.92;;;5.63;;
62796;SDS011;48839;48.546;-4.178;2023-03-29T14:02:17;13.13;;;5.47;;
62796;SDS011;48839;48.546;-4.178;2023-03-29T14:04:44;12.80;;;4.30;;
62796;SDS011;48839;48.546;-4.178;2023-03-29T14:07:12;10.00;;;4.28;;
62796;SDS011;48839;48.546;-4.178;2023-03-29T14:09:40;10.02;;;3.58;;
62796;SDS011;48839;48.546;-4.178;2023-03-29T14:12:08;14.95;;;4.22;;
62796;SDS011;48839;48.546;-4.178;2023-03-29T14:14:34;11.52;;;4.13;;
62796;SDS011;48839;48.546;-4.178;2023-03-29T14:17:01;15.35;;;4.95;;
62796;SDS011;48839;48.546;-4.178;2023-03-29T14:19:31;17.60;;;5.80;;
62796;SDS011;48839;48.546;-4.178;2023-03-29T14:21:59;16.80;;;5.30;;
62796;SDS011;48839;48.546;-4.178;2023-03-29T14:24:27;16.45;;;6.25;;
62796;SDS011;48839;48.546;-4.178;2023-03-29T14:27:00;15.77;;;5.85;;
62796;SDS011;48839;48.546;-4.178;2023-03-29T14:29:30;30.23;;;5.53;;
62796;SDS011;48839;48.546;-4.178;2023-03-29T14:31:56;20.20;;;6.93;;
62796;SDS011;48839;48.546;-4.178;2023-03-29T14:34:33;15.23;;;4.65;;
62796;SDS011;48839;48.546;-4.178;2023-03-29T14:36:59;20.83;;;6.72;;
62796;SDS011;48839;48.546;-4.178;2023-03-29T14:39:25;19.83;;;5.18;;
62796;SDS011;48839;48.546;-4.178;2023-03-29T14:41:52;14.07;;;4.53;;
62796;SDS011;48839;48.546;-4.178;2023-03-29T14:44:20;26.95;;;6.53;;
62796;SDS011;48839;48.546;-4.178;2023-03-29T14:46:46;16.35;;;6.45;;
62796;SDS011;48839;48.546;-4.178;2023-03-29T14:49:16;21.75;;;5.18;;
62796;SDS011;48839;48.546;-4.178;2023-03-29T14:51:43;23.40;;;5.32;;
62796;SDS011;48839;48.546;-4.178;2023-03-29T14:54:20;14.38;;;4.30;;
62796;SDS011;48839;48.546;-4.178;2023-03-29T14:56:47;15.77;;;3.88;;
62796;SDS011;48839;48.546;-4.178;2023-03-29T14:59:22;14.60;;;3.22;;
62796;SDS011;48839;48.546;-4.178;2023-03-29T15:01:48;12.13;;;3.30;;
62796;SDS011;48839;48.546;-4.178;2023-03-29T15:04:14;10.10;;;3.45;;
62796;SDS011;48839;48.546;-4.178;2023-03-29T15:06:41;8.68;;;3.35;;
62796;SDS011;48839;48.546;-4.178;2023-03-29T15:09:13;9.95;;;3.92;;
62796;SDS011;48839;48.546;-4.178;2023-03-29T15:11:48;9.55;;;2.85;;
62796;SDS011;48839;48.546;-4.178;2023-03-29T15:14:15;4.88;;;2.00;;
62796;SDS011;48839;48.546;-4.178;2023-03-29T15:16:42;8.73;;;2.40;;
62796;SDS011;48839;48.546;-4.178;2023-03-29T15:19:17;10.98;;;4.47;;
62796;SDS011;48839;48.546;-4.178;2023-03-29T15:21:44;10.50;;;4.03;;
62796;SDS011;48839;48.546;-4.178;2023-03-29T15:26:45;20.63;;;9.27;;
62796;SDS011;48839;48.546;-4.178;2023-03-29T15:29:21;8.55;;;3.90;;
62796;SDS011;48839;48.546;-4.178;2023-03-29T15:31:54;5.10;;;2.78;;
62796;SDS011;48839;48.546;-4.178;2023-03-29T15:34:28;7.53;;;2.17;;
62796;SDS011;48839;48.546;-4.178;2023-03-29T15:36:54;8.50;;;2.08;;
62796;SDS011;48839;48.546;-4.178;2023-03-29T15:39:23;6.55;;;3.05;;
62796;SDS011;48839;48.546;-4.178;2023-03-29T15:41:51;1.45;;;1.35;;
62796;SDS011;48839;48.546;-4.178;2023-03-29T15:44:21;4.30;;;1.65;;
62796;SDS011;48839;48.546;-4.178;2023-03-29T15:46:47;4.25;;;2.03;;
62796;SDS011;48839;48.546;-4.178;2023-03-29T15:49:13;5.97;;;3.70;;
62796;SDS011;48839;48.546;-4.178;2023-03-29T15:51:39;11.20;;;3.50;;
62796;SDS011;48839;48.546;-4.178;2023-03-29T15:54:06;9.68;;;3.05;;
62796;SDS011;48839;48.546;-4.178;2023-03-29T15:56:33;7.55;;;2.80;;
62796;SDS011;48839;48.546;-4.178;2023-03-29T15:59:05;6.35;;;2.90;;
62796;SDS011;48839;48.546;-4.178;2023-03-29T16:01:35;10.20;;;3.35;;
62796;SDS011;48839;48.546;-4.178;2023-03-29T16:04:03;10.48;;;3.00;;
62796;SDS011;48839;48.546;-4.178;2023-03-29T16:06:29;15.73;;;3.85;;
62796;SDS011;48839;48.546;-4.178;2023-03-29T16:08:56;15.43;;;4.22;;
62796;SDS011;48839;48.546;-4.178;2023-03-29T16:11:22;15.05;;;4.07;;
62796;SDS011;48839;48.546;-4.178;2023-03-29T16:13:48;14.63;;;4.80;;
62796;SDS011;48839;48.546;-4.178;2023-03-29T16:16:14;15.90;;;5.22;;
62796;SDS011;48839;48.546;-4.178;2023-03-29T16:18:40;10.52;;;4.50;;
62796;SDS011;48839;48.546;-4.178;2023-03-29T16:21:13;17.85;;;4.32;;
62796;SDS011;48839;48.546;-4.178;2023-03-29T16:23:40;14.85;;;4.10;;
62796;SDS011;48839;48.546;-4.178;2023-03-29T16:26:06;17.90;;;4.80;;